sensor_id;sensor_type;location;lat;lon;timestamp;temperature;humidity
1468;DHT22;727;48.892;9.544;2024-01-11T00:00:10;-4.40;99.90
1468;DHT22;727;48.892;9.544;2024-01-11T00:02:38;-4.40;99.90
1468;DHT22;727;48.892;9.544;2024-01-11T00:05:05;-4.50;99.90
1468;DHT22;727;48.892;9.544;2024-01-11T00:07:33;-4.40;99.90
1468;DHT22;727;48.892;9.544;2024-01-11T00:10:00;-4.50;99.90
1468;DHT22;727;48.892;9.544;2024-01-11T00:12:27;-4.50;99.90
1468;DHT22;727;48.892;9.544;2024-01-11T00:14:54;-4.50;99.90
1468;DHT22;727;48.892;9.544;2024-01-11T00:17:21;-4.50;99.90
1468;DHT22;727;48.892;9.544;2024-01-11T00:19:49;-4.50;99.90
1468;DHT22;727;48.892;9.544;2024-01-11T00:22:16;-4.60;99.90
1468;DHT22;727;48.892;9.544;2024-01-11T00:24:43;-4.60;99.90
1468;DHT22;727;48.892;9.544;2024-01-11T00:27:09;-4.60;99.90
1468;DHT22;727;48.892;9.544;2024-01-11T00:29:36;-4.60;99.90
1468;DHT22;727;48.892;9.544;2024-01-11T00:32:03;-4.70;99.90
1468;DHT22;727;48.892;9.544;2024-01-11T00:34:30;-4.70;99.90
1468;DHT22;727;48.892;9.544;2024-01-11T00:36:58;-4.70;99.90
1468;DHT22;727;48.892;9.544;2024-01-11T00:39:24;-4.70;99.90
1468;DHT22;727;48.892;9.544;2024-01-11T00:41:51;-4.70;99.90
1468;DHT22;727;48.892;9.544;2024-01-11T00:44:18;-4.70;99.90
1468;DHT22;727;48.892;9.544;2024-01-11T00:46:44;-4.80;99.90
1468;DHT22;727;48.892;9.544;2024-01-11T00:49:11;-4.80;99.90
1468;DHT22;727;48.892;9.544;2024-01-11T00:51:38;-4.80;99.90
1468;DHT22;727;48.892;9.544;2024-01-11T00:54:06;-4.80;99.90
1468;DHT22;727;48.892;9.544;2024-01-11T00:56:33;-4.80;99.90
1468;DHT22;727;48.892;9.544;2024-01-11T00:59:00;-4.80;99.90
1468;DHT22;727;48.892;9.544;2024-01-11T01:01:26;-4.80;99.90
1468;DHT22;727;48.892;9.544;2024-01-11T01:03:53;-4.80;99.90
1468;DHT22;727;48.892;9.544;2024-01-11T01:06:20;-4.80;99.90
1468;DHT22;727;48.892;9.544;2024-01-11T01:08:46;-4.80;99.90
1468;DHT22;727;48.892;9.544;2024-01-11T01:11:14;-4.70;99.90
1468;DHT22;727;48.892;9.544;2024-01-11T01:13:41;-4.80;99.90
1468;DHT22;727;48.892;9.544;2024-01-11T01:16:08;-4.80;99.90
1468;DHT22;727;48.892;9.544;2024-01-11T01:18:34;-4.90;99.90
1468;DHT22;727;48.892;9.544;2024-01-11T01:21:01;-4.90;99.90
1468;DHT22;727;48.892;9.544;2024-01-11T01:23:28;-4.90;99.90
1468;DHT22;727;48.892;9.544;2024-01-11T01:25:55;-4.90;99.90
1468;DHT22;727;48.892;9.544;2024-01-11T01:28:23;-4.90;99.90
1468;DHT22;727;48.892;9.544;2024-01-11T01:30:49;-4.90;99.90
1468;DHT22;727;48.892;9.544;2024-01-11T01:33:16;-4.90;99.90
1468;DHT22;727;48.892;9.544;2024-01-11T01:35:43;-4.90;99.90
1468;DHT22;727;48.892;9.544;2024-01-11T01:38:11;-4.90;99.90
1468;DHT22;727;48.892;9.544;2024-01-11T01:40:38;-4.90;99.90
1468;DHT22;727;48.892;9.544;2024-01-11T01:43:07;-5.00;99.90
1468;DHT22;727;48.892;9.544;2024-01-11T01:45:35;-5.00;99.90
1468;DHT22;727;48.892;9.544;2024-01-11T01:48:02;-5.00;99.90
1468;DHT22;727;48.892;9.544;2024-01-11T01:50:30;-5.00;99.90
1468;DHT22;727;48.892;9.544;2024-01-11T01:52:57;-5.00;99.90
1468;DHT22;727;48.892;9.544;2024-01-11T01:55:25;-4.90;99.90
1468;DHT22;727;48.892;9.544;2024-01-11T01:57:53;-5.00;99.90
1468;DHT22;727;48.892;9.544;2024-01-11T02:00:20;-5.00;99.90
1468;DHT22;727;48.892;9.544;2024-01-11T02:02:50;-4.90;99.90
1468;DHT22;727;48.892;9.544;2024-01-11T02:05:18;-4.90;99.90
1468;DHT22;727;48.892;9.544;2024-01-11T02:07:45;-4.90;99.90
1468;DHT22;727;48.892;9.544;2024-01-11T02:10:12;-4.90;99.90
1468;DHT22;727;48.892;9.544;2024-01-11T02:12:39;-4.90;99.90
1468;DHT22;727;48.892;9.544;2024-01-11T02:15:07;-4.90;99.90
1468;DHT22;727;48.892;9.544;2024-01-11T02:17:34;-4.90;99.90
1468;DHT22;727;48.892;9.544;2024-01-11T02:20:03;-4.90;99.90
1468;DHT22;727;48.892;9.544;2024-01-11T02:22:32;-4.90;99.90
1468;DHT22;727;48.892;9.544;2024-01-11T02:25:02;-4.80;99.90
1468;DHT22;727;48.892;9.544;2024-01-11T02:27:29;-4.80;99.90
1468;DHT22;727;48.892;9.544;2024-01-11T02:29:55;-4.80;99.90
1468;DHT22;727;48.892;9.544;2024-01-11T02:32:22;-4.80;99.90
1468;DHT22;727;48.892;9.544;2024-01-11T02:34:49;-4.70;99.90
1468;DHT22;727;48.892;9.544;2024-01-11T02:37:16;-4.70;99.90
1468;DHT22;727;48.892;9.544;2024-01-11T02:39:43;-4.70;99.90
1468;DHT22;727;48.892;9.544;2024-01-11T02:42:11;-4.70;99.90
1468;DHT22;727;48.892;9.544;2024-01-11T02:44:39;-4.70;99.90
1468;DHT22;727;48.892;9.544;2024-01-11T02:47:05;-4.80;99.90
1468;DHT22;727;48.892;9.544;2024-01-11T02:49:32;-4.80;99.90
1468;DHT22;727;48.892;9.544;2024-01-11T02:51:59;-4.80;99.90
1468;DHT22;727;48.892;9.544;2024-01-11T02:54:25;-4.70;99.90
1468;DHT22;727;48.892;9.544;2024-01-11T02:56:52;-4.70;99.90
1468;DHT22;727;48.892;9.544;2024-01-11T02:59:20;-4.70;99.90
1468;DHT22;727;48.892;9.544;2024-01-11T03:01:47;-4.80;99.90
1468;DHT22;727;48.892;9.544;2024-01-11T03:04:13;-4.80;99.90
1468;DHT22;727;48.892;9.544;2024-01-11T03:06:40;-4.90;99.90
1468;DHT22;727;48.892;9.544;2024-01-11T03:09:07;-5.00;99.90
1468;DHT22;727;48.892;9.544;2024-01-11T03:11:34;-5.00;99.90
1468;DHT22;727;48.892;9.544;2024-01-11T03:14:00;-5.10;99.90
1468;DHT22;727;48.892;9.544;2024-01-11T03:16:29;-5.10;99.90
1468;DHT22;727;48.892;9.544;2024-01-11T03:18:56;-5.10;99.90
1468;DHT22;727;48.892;9.544;2024-01-11T03:21:22;-5.10;99.90
1468;DHT22;727;48.892;9.544;2024-01-11T03:23:49;-5.20;99.90
1468;DHT22;727;48.892;9.544;2024-01-11T03:26:17;-5.20;99.90
1468;DHT22;727;48.892;9.544;2024-01-11T03:28:42;-5.20;99.90
1468;DHT22;727;48.892;9.544;2024-01-11T03:31:09;-5.20;99.90
1468;DHT22;727;48.892;9.544;2024-01-11T03:33:38;-5.20;99.90
1468;DHT22;727;48.892;9.544;2024-01-11T03:36:08;-5.30;99.90
1468;DHT22;727;48.892;9.544;2024-01-11T03:38:35;-5.30;99.90
1468;DHT22;727;48.892;9.544;2024-01-11T03:41:02;-5.30;99.90
1468;DHT22;727;48.892;9.544;2024-01-11T03:43:33;-5.30;99.90
1468;DHT22;727;48.892;9.544;2024-01-11T03:46:00;-5.30;99.90
1468;DHT22;727;48.892;9.544;2024-01-11T03:48:26;-5.30;99.90
1468;DHT22;727;48.892;9.544;2024-01-11T03:50:54;-5.40;99.90
1468;DHT22;727;48.892;9.544;2024-01-11T03:53:21;-5.40;99.90
1468;DHT22;727;48.892;9.544;2024-01-11T03:55:48;-5.40;99.90
1468;DHT22;727;48.892;9.544;2024-01-11T03:58:15;-5.50;99.90
1468;DHT22;727;48.892;9.544;2024-01-11T04:00:41;-5.50;99.90
1468;DHT22;727;48.892;9.544;2024-01-11T04:03:08;-5.50;99.90
1468;DHT22;727;48.892;9.544;2024-01-11T04:05:35;-5.50;99.90
1468;DHT22;727;48.892;9.544;2024-01-11T04:08:05;-5.60;99.90
1468;DHT22;727;48.892;9.544;2024-01-11T04:10:32;-5.60;99.90
1468;DHT22;727;48.892;9.544;2024-01-11T04:12:58;-5.60;99.90
1468;DHT22;727;48.892;9.544;2024-01-11T04:15:25;-5.60;99.90
1468;DHT22;727;48.892;9.544;2024-01-11T04:17:52;-5.60;99.90
1468;DHT22;727;48.892;9.544;2024-01-11T04:20:18;-5.60;99.90
1468;DHT22;727;48.892;9.544;2024-01-11T04:22:45;-5.70;99.90
1468;DHT22;727;48.892;9.544;2024-01-11T04:25:13;-5.70;99.90
1468;DHT22;727;48.892;9.544;2024-01-11T04:27:40;-5.70;99.90
1468;DHT22;727;48.892;9.544;2024-01-11T04:30:07;-5.70;99.90
1468;DHT22;727;48.892;9.544;2024-01-11T04:32:34;-5.70;99.90
1468;DHT22;727;48.892;9.544;2024-01-11T04:35:01;-5.80;99.90
1468;DHT22;727;48.892;9.544;2024-01-11T04:37:28;-5.80;99.90
1468;DHT22;727;48.892;9.544;2024-01-11T04:39:54;-5.80;99.90
1468;DHT22;727;48.892;9.544;2024-01-11T04:42:26;-5.80;99.90
1468;DHT22;727;48.892;9.544;2024-01-11T04:44:54;-5.80;99.90
1468;DHT22;727;48.892;9.544;2024-01-11T04:47:20;-5.80;99.90
1468;DHT22;727;48.892;9.544;2024-01-11T04:49:47;-5.70;99.90
1468;DHT22;727;48.892;9.544;2024-01-11T04:52:14;-5.80;99.90
1468;DHT22;727;48.892;9.544;2024-01-11T04:54:40;-5.70;99.90
1468;DHT22;727;48.892;9.544;2024-01-11T04:57:07;-5.70;99.90
1468;DHT22;727;48.892;9.544;2024-01-11T04:59:35;-5.70;99.90
1468;DHT22;727;48.892;9.544;2024-01-11T05:02:02;-5.70;99.90
1468;DHT22;727;48.892;9.544;2024-01-11T05:04:28;-5.70;99.90
1468;DHT22;727;48.892;9.544;2024-01-11T05:06:55;-5.70;99.90
1468;DHT22;727;48.892;9.544;2024-01-11T05:09:21;-5.70;99.90
1468;DHT22;727;48.892;9.544;2024-01-11T05:11:48;-5.70;99.90
1468;DHT22;727;48.892;9.544;2024-01-11T05:14:15;-5.70;99.90
1468;DHT22;727;48.892;9.544;2024-01-11T05:16:43;-5.70;99.90
1468;DHT22;727;48.892;9.544;2024-01-11T05:19:10;-5.80;99.90
1468;DHT22;727;48.892;9.544;2024-01-11T05:21:36;-5.80;99.90
1468;DHT22;727;48.892;9.544;2024-01-11T05:24:04;-5.80;99.90
1468;DHT22;727;48.892;9.544;2024-01-11T05:26:31;-5.80;99.90
1468;DHT22;727;48.892;9.544;2024-01-11T05:28:58;-5.80;99.90
1468;DHT22;727;48.892;9.544;2024-01-11T05:31:25;-5.80;99.90
1468;DHT22;727;48.892;9.544;2024-01-11T05:33:53;-5.90;99.90
1468;DHT22;727;48.892;9.544;2024-01-11T05:36:20;-5.90;99.90
1468;DHT22;727;48.892;9.544;2024-01-11T05:38:47;-5.90;99.90
1468;DHT22;727;48.892;9.544;2024-01-11T05:41:13;-5.90;99.90
1468;DHT22;727;48.892;9.544;2024-01-11T05:43:41;-5.90;99.90
1468;DHT22;727;48.892;9.544;2024-01-11T05:46:08;-6.00;99.90
1468;DHT22;727;48.892;9.544;2024-01-11T05:48:34;-6.00;99.90
1468;DHT22;727;48.892;9.544;2024-01-11T05:51:03;-6.00;99.90
1468;DHT22;727;48.892;9.544;2024-01-11T05:53:29;-6.00;99.90
1468;DHT22;727;48.892;9.544;2024-01-11T05:56:00;-6.00;99.90
1468;DHT22;727;48.892;9.544;2024-01-11T05:58:27;-5.90;99.90
1468;DHT22;727;48.892;9.544;2024-01-11T06:00:53;-5.90;99.90
1468;DHT22;727;48.892;9.544;2024-01-11T06:03:21;-5.90;99.90
1468;DHT22;727;48.892;9.544;2024-01-11T06:05:47;-5.80;99.90
1468;DHT22;727;48.892;9.544;2024-01-11T06:08:16;-5.90;99.90
1468;DHT22;727;48.892;9.544;2024-01-11T06:10:42;-5.90;99.90
1468;DHT22;727;48.892;9.544;2024-01-11T06:13:09;-5.90;99.90
1468;DHT22;727;48.892;9.544;2024-01-11T06:15:36;-5.90;99.90
1468;DHT22;727;48.892;9.544;2024-01-11T06:18:03;-5.90;99.90
1468;DHT22;727;48.892;9.544;2024-01-11T06:20:31;-6.00;99.90
1468;DHT22;727;48.892;9.544;2024-01-11T06:22:57;-5.90;99.90
1468;DHT22;727;48.892;9.544;2024-01-11T06:25:25;-6.00;99.90
1468;DHT22;727;48.892;9.544;2024-01-11T06:27:53;-6.00;99.90
1468;DHT22;727;48.892;9.544;2024-01-11T06:30:20;-6.00;99.90
1468;DHT22;727;48.892;9.544;2024-01-11T06:32:48;-5.90;99.90
1468;DHT22;727;48.892;9.544;2024-01-11T06:35:14;-5.90;99.90
1468;DHT22;727;48.892;9.544;2024-01-11T06:37:41;-5.90;99.90
1468;DHT22;727;48.892;9.544;2024-01-11T06:40:08;-5.90;99.90
1468;DHT22;727;48.892;9.544;2024-01-11T06:42:37;-5.90;99.90
1468;DHT22;727;48.892;9.544;2024-01-11T06:45:04;-5.90;99.90
1468;DHT22;727;48.892;9.544;2024-01-11T06:47:31;-6.00;99.90
1468;DHT22;727;48.892;9.544;2024-01-11T06:49:57;-6.00;99.90
1468;DHT22;727;48.892;9.544;2024-01-11T06:52:25;-6.00;99.90
1468;DHT22;727;48.892;9.544;2024-01-11T06:54:51;-6.00;99.90
1468;DHT22;727;48.892;9.544;2024-01-11T06:57:18;-6.00;99.90
1468;DHT22;727;48.892;9.544;2024-01-11T06:59:46;-6.00;99.90
1468;DHT22;727;48.892;9.544;2024-01-11T07:02:14;-6.10;99.90
1468;DHT22;727;48.892;9.544;2024-01-11T07:04:44;-6.10;99.90
1468;DHT22;727;48.892;9.544;2024-01-11T07:07:11;-6.10;99.90
1468;DHT22;727;48.892;9.544;2024-01-11T07:09:39;-6.10;99.90
1468;DHT22;727;48.892;9.544;2024-01-11T07:12:06;-6.10;99.90
1468;DHT22;727;48.892;9.544;2024-01-11T07:14:33;-6.00;99.90
1468;DHT22;727;48.892;9.544;2024-01-11T07:17:01;-6.00;99.90
1468;DHT22;727;48.892;9.544;2024-01-11T07:19:29;-6.10;99.90
1468;DHT22;727;48.892;9.544;2024-01-11T07:21:56;-6.10;99.90
1468;DHT22;727;48.892;9.544;2024-01-11T07:24:22;-6.10;99.90
1468;DHT22;727;48.892;9.544;2024-01-11T07:26:49;-6.00;99.90
1468;DHT22;727;48.892;9.544;2024-01-11T07:29:16;-6.00;99.90
1468;DHT22;727;48.892;9.544;2024-01-11T07:31:42;-6.00;99.90
1468;DHT22;727;48.892;9.544;2024-01-11T07:34:10;-6.00;99.90
1468;DHT22;727;48.892;9.544;2024-01-11T07:36:37;-5.90;99.90
1468;DHT22;727;48.892;9.544;2024-01-11T07:39:04;-5.90;99.90
1468;DHT22;727;48.892;9.544;2024-01-11T07:41:31;-5.80;99.90
1468;DHT22;727;48.892;9.544;2024-01-11T07:43:59;-5.80;99.90
1468;DHT22;727;48.892;9.544;2024-01-11T07:46:25;-5.80;99.90
1468;DHT22;727;48.892;9.544;2024-01-11T07:48:52;-5.70;99.90
1468;DHT22;727;48.892;9.544;2024-01-11T07:51:20;-5.70;99.90
1468;DHT22;727;48.892;9.544;2024-01-11T07:53:47;-5.60;99.90
1468;DHT22;727;48.892;9.544;2024-01-11T07:56:13;-5.50;99.90
1468;DHT22;727;48.892;9.544;2024-01-11T07:58:40;-5.50;99.90
1468;DHT22;727;48.892;9.544;2024-01-11T08:01:08;-5.40;99.90
1468;DHT22;727;48.892;9.544;2024-01-11T08:03:35;-5.40;99.90
1468;DHT22;727;48.892;9.544;2024-01-11T08:06:02;-5.30;99.90
1468;DHT22;727;48.892;9.544;2024-01-11T08:08:30;-5.20;99.90
1468;DHT22;727;48.892;9.544;2024-01-11T08:10:57;-5.00;99.90
1468;DHT22;727;48.892;9.544;2024-01-11T08:13:23;-4.90;99.90
1468;DHT22;727;48.892;9.544;2024-01-11T08:15:50;-4.50;99.90
1468;DHT22;727;48.892;9.544;2024-01-11T08:18:19;-3.60;99.90
1468;DHT22;727;48.892;9.544;2024-01-11T08:20:45;-2.30;99.90
1468;DHT22;727;48.892;9.544;2024-01-11T08:23:14;-1.20;99.90
1468;DHT22;727;48.892;9.544;2024-01-11T08:25:43;0.00;99.90
1468;DHT22;727;48.892;9.544;2024-01-11T08:28:10;1.00;99.90
1468;DHT22;727;48.892;9.544;2024-01-11T08:30:37;1.60;99.90
1468;DHT22;727;48.892;9.544;2024-01-11T08:33:04;2.30;99.10
1468;DHT22;727;48.892;9.544;2024-01-11T08:35:30;2.50;96.10
1468;DHT22;727;48.892;9.544;2024-01-11T08:37:58;2.80;94.10
1468;DHT22;727;48.892;9.544;2024-01-11T08:40:25;2.90;93.00
1468;DHT22;727;48.892;9.544;2024-01-11T08:42:53;3.20;92.60
1468;DHT22;727;48.892;9.544;2024-01-11T08:45:20;3.60;91.60
1468;DHT22;727;48.892;9.544;2024-01-11T08:47:48;4.00;90.10
1468;DHT22;727;48.892;9.544;2024-01-11T08:50:15;4.10;88.80
1468;DHT22;727;48.892;9.544;2024-01-11T08:52:43;4.40;87.00
1468;DHT22;727;48.892;9.544;2024-01-11T08:55:10;4.70;86.20
1468;DHT22;727;48.892;9.544;2024-01-11T08:57:38;4.90;84.20
1468;DHT22;727;48.892;9.544;2024-01-11T09:00:07;4.50;83.20
1468;DHT22;727;48.892;9.544;2024-01-11T09:02:34;5.40;84.20
1468;DHT22;727;48.892;9.544;2024-01-11T09:05:00;5.70;80.60
1468;DHT22;727;48.892;9.544;2024-01-11T09:07:27;5.90;79.80
1468;DHT22;727;48.892;9.544;2024-01-11T09:09:54;6.10;78.80
1468;DHT22;727;48.892;9.544;2024-01-11T09:12:21;6.10;76.70
1468;DHT22;727;48.892;9.544;2024-01-11T09:14:48;5.60;76.90
1468;DHT22;727;48.892;9.544;2024-01-11T09:17:16;5.60;77.90
1468;DHT22;727;48.892;9.544;2024-01-11T09:19:43;5.50;78.00
1468;DHT22;727;48.892;9.544;2024-01-11T09:22:09;5.40;77.20
1468;DHT22;727;48.892;9.544;2024-01-11T09:24:36;5.80;76.80
1468;DHT22;727;48.892;9.544;2024-01-11T09:27:03;6.10;76.90
1468;DHT22;727;48.892;9.544;2024-01-11T09:29:30;6.30;75.20
1468;DHT22;727;48.892;9.544;2024-01-11T09:31:58;6.30;75.00
1468;DHT22;727;48.892;9.544;2024-01-11T09:34:26;6.50;76.10
1468;DHT22;727;48.892;9.544;2024-01-11T09:36:53;6.80;74.70
1468;DHT22;727;48.892;9.544;2024-01-11T09:39:24;7.50;73.90
1468;DHT22;727;48.892;9.544;2024-01-11T09:41:55;7.40;72.20
1468;DHT22;727;48.892;9.544;2024-01-11T09:44:24;7.80;71.70
1468;DHT22;727;48.892;9.544;2024-01-11T09:46:53;8.10;69.50
1468;DHT22;727;48.892;9.544;2024-01-11T09:49:22;8.20;69.10
1468;DHT22;727;48.892;9.544;2024-01-11T09:51:51;8.30;67.80
1468;DHT22;727;48.892;9.544;2024-01-11T09:54:22;8.10;67.00
1468;DHT22;727;48.892;9.544;2024-01-11T09:56:50;8.70;66.60
1468;DHT22;727;48.892;9.544;2024-01-11T09:59:18;8.80;66.60
1468;DHT22;727;48.892;9.544;2024-01-11T10:01:47;9.00;64.90
1468;DHT22;727;48.892;9.544;2024-01-11T10:04:16;8.60;65.20
1468;DHT22;727;48.892;9.544;2024-01-11T10:06:43;9.00;65.00
1468;DHT22;727;48.892;9.544;2024-01-11T10:09:12;8.90;64.60
1468;DHT22;727;48.892;9.544;2024-01-11T10:11:39;9.10;64.70
1468;DHT22;727;48.892;9.544;2024-01-11T10:14:06;8.60;65.70
1468;DHT22;727;48.892;9.544;2024-01-11T10:16:33;8.80;65.40
1468;DHT22;727;48.892;9.544;2024-01-11T10:19:00;8.70;66.60
1468;DHT22;727;48.892;9.544;2024-01-11T10:21:27;8.90;65.40
1468;DHT22;727;48.892;9.544;2024-01-11T10:23:57;8.70;65.10
1468;DHT22;727;48.892;9.544;2024-01-11T10:26:26;9.50;65.50
1468;DHT22;727;48.892;9.544;2024-01-11T10:28:52;10.00;63.30
1468;DHT22;727;48.892;9.544;2024-01-11T10:31:22;10.40;62.20
1468;DHT22;727;48.892;9.544;2024-01-11T10:33:52;10.30;60.00
1468;DHT22;727;48.892;9.544;2024-01-11T10:36:19;10.50;59.40
1468;DHT22;727;48.892;9.544;2024-01-11T10:38:47;10.20;59.80
1468;DHT22;727;48.892;9.544;2024-01-11T10:41:18;10.70;59.20
1468;DHT22;727;48.892;9.544;2024-01-11T10:43:48;11.20;58.60
1468;DHT22;727;48.892;9.544;2024-01-11T10:46:15;10.70;58.80
1468;DHT22;727;48.892;9.544;2024-01-11T10:48:48;11.00;58.30
1468;DHT22;727;48.892;9.544;2024-01-11T10:51:21;11.20;58.10
1468;DHT22;727;48.892;9.544;2024-01-11T10:53:50;10.70;57.00
1468;DHT22;727;48.892;9.544;2024-01-11T10:56:19;10.70;57.90
1468;DHT22;727;48.892;9.544;2024-01-11T10:58:50;11.00;58.00
1468;DHT22;727;48.892;9.544;2024-01-11T11:01:18;11.80;57.20
1468;DHT22;727;48.892;9.544;2024-01-11T11:03:46;12.10;56.50
1468;DHT22;727;48.892;9.544;2024-01-11T11:06:18;11.40;56.20
1468;DHT22;727;48.892;9.544;2024-01-11T11:08:47;11.30;56.70
1468;DHT22;727;48.892;9.544;2024-01-11T11:11:17;12.10;56.20
1468;DHT22;727;48.892;9.544;2024-01-11T11:13:47;11.80;55.30
1468;DHT22;727;48.892;9.544;2024-01-11T11:16:16;12.40;55.30
1468;DHT22;727;48.892;9.544;2024-01-11T11:18:43;12.60;55.30
1468;DHT22;727;48.892;9.544;2024-01-11T11:21:10;12.10;54.90
1468;DHT22;727;48.892;9.544;2024-01-11T11:23:38;12.20;55.20
1468;DHT22;727;48.892;9.544;2024-01-11T11:26:06;11.90;55.60
1468;DHT22;727;48.892;9.544;2024-01-11T11:28:35;11.40;55.30
1468;DHT22;727;48.892;9.544;2024-01-11T11:31:03;11.30;56.60
1468;DHT22;727;48.892;9.544;2024-01-11T11:33:31;12.10;56.50
1468;DHT22;727;48.892;9.544;2024-01-11T11:35:58;11.90;55.80
1468;DHT22;727;48.892;9.544;2024-01-11T11:38:26;11.80;56.10
1468;DHT22;727;48.892;9.544;2024-01-11T11:40:56;10.80;56.50
1468;DHT22;727;48.892;9.544;2024-01-11T11:43:23;10.90;58.00
1468;DHT22;727;48.892;9.544;2024-01-11T11:45:51;11.00;58.00
1468;DHT22;727;48.892;9.544;2024-01-11T11:48:50;11.10;57.30
1468;DHT22;727;48.892;9.544;2024-01-11T11:51:21;10.40;58.00
1468;DHT22;727;48.892;9.544;2024-01-11T11:53:49;11.40;58.10
1468;DHT22;727;48.892;9.544;2024-01-11T11:56:18;11.00;56.80
1468;DHT22;727;48.892;9.544;2024-01-11T11:58:46;11.20;57.40
1468;DHT22;727;48.892;9.544;2024-01-11T12:01:14;11.30;57.30
1468;DHT22;727;48.892;9.544;2024-01-11T12:03:43;11.50;57.10
1468;DHT22;727;48.892;9.544;2024-01-11T12:06:16;12.10;56.50
1468;DHT22;727;48.892;9.544;2024-01-11T12:08:43;12.00;56.10
1468;DHT22;727;48.892;9.544;2024-01-11T12:11:13;12.30;55.70
1468;DHT22;727;48.892;9.544;2024-01-11T12:13:41;12.50;55.00
1468;DHT22;727;48.892;9.544;2024-01-11T12:16:10;12.90;54.60
1468;DHT22;727;48.892;9.544;2024-01-11T12:18:37;12.50;53.90
1468;DHT22;727;48.892;9.544;2024-01-11T12:21:04;12.60;54.80
1468;DHT22;727;48.892;9.544;2024-01-11T12:23:33;12.40;54.50
1468;DHT22;727;48.892;9.544;2024-01-11T12:26:01;12.30;54.40
1468;DHT22;727;48.892;9.544;2024-01-11T12:28:28;11.70;55.00
1468;DHT22;727;48.892;9.544;2024-01-11T12:30:55;12.40;55.20
1468;DHT22;727;48.892;9.544;2024-01-11T12:33:22;12.50;54.50
1468;DHT22;727;48.892;9.544;2024-01-11T12:35:49;12.50;55.00
1468;DHT22;727;48.892;9.544;2024-01-11T12:38:16;12.00;55.20
1468;DHT22;727;48.892;9.544;2024-01-11T12:40:46;12.30;55.10
1468;DHT22;727;48.892;9.544;2024-01-11T12:43:13;12.40;54.90
1468;DHT22;727;48.892;9.544;2024-01-11T12:45:40;12.40;54.40
1468;DHT22;727;48.892;9.544;2024-01-11T12:48:07;12.60;54.40
1468;DHT22;727;48.892;9.544;2024-01-11T12:50:35;12.60;54.20
1468;DHT22;727;48.892;9.544;2024-01-11T12:53:07;12.20;53.90
1468;DHT22;727;48.892;9.544;2024-01-11T12:55:34;11.50;54.60
1468;DHT22;727;48.892;9.544;2024-01-11T12:58:06;11.80;54.80
1468;DHT22;727;48.892;9.544;2024-01-11T13:00:34;11.50;54.50
1468;DHT22;727;48.892;9.544;2024-01-11T13:03:01;12.00;54.60
1468;DHT22;727;48.892;9.544;2024-01-11T13:05:29;11.60;54.10
1468;DHT22;727;48.892;9.544;2024-01-11T13:08:00;11.10;55.10
1468;DHT22;727;48.892;9.544;2024-01-11T13:10:27;11.20;55.50
1468;DHT22;727;48.892;9.544;2024-01-11T13:12:54;11.10;56.20
1468;DHT22;727;48.892;9.544;2024-01-11T13:15:23;11.20;56.20
1468;DHT22;727;48.892;9.544;2024-01-11T13:17:50;11.10;55.60
1468;DHT22;727;48.892;9.544;2024-01-11T13:20:16;11.20;55.10
1468;DHT22;727;48.892;9.544;2024-01-11T13:22:44;11.00;56.20
1468;DHT22;727;48.892;9.544;2024-01-11T13:25:12;11.20;55.70
1468;DHT22;727;48.892;9.544;2024-01-11T13:27:38;11.40;54.70
1468;DHT22;727;48.892;9.544;2024-01-11T13:30:06;11.00;55.10
1468;DHT22;727;48.892;9.544;2024-01-11T13:32:35;11.00;55.50
1468;DHT22;727;48.892;9.544;2024-01-11T13:35:02;11.40;55.10
1468;DHT22;727;48.892;9.544;2024-01-11T13:37:29;11.50;54.00
1468;DHT22;727;48.892;9.544;2024-01-11T13:39:56;10.80;55.20
1468;DHT22;727;48.892;9.544;2024-01-11T13:42:22;10.40;56.40
1468;DHT22;727;48.892;9.544;2024-01-11T13:44:49;10.20;56.30
1468;DHT22;727;48.892;9.544;2024-01-11T13:47:16;10.20;56.90
1468;DHT22;727;48.892;9.544;2024-01-11T13:49:45;10.10;56.80
1468;DHT22;727;48.892;9.544;2024-01-11T13:52:12;9.80;58.20
1468;DHT22;727;48.892;9.544;2024-01-11T13:54:39;9.80;59.00
1468;DHT22;727;48.892;9.544;2024-01-11T13:57:06;9.90;58.10
1468;DHT22;727;48.892;9.544;2024-01-11T13:59:32;9.80;58.80
1468;DHT22;727;48.892;9.544;2024-01-11T14:01:59;9.30;58.20
1468;DHT22;727;48.892;9.544;2024-01-11T14:04:27;8.70;59.90
1468;DHT22;727;48.892;9.544;2024-01-11T14:06:55;8.70;60.40
1468;DHT22;727;48.892;9.544;2024-01-11T14:09:22;8.40;60.20
1468;DHT22;727;48.892;9.544;2024-01-11T14:11:49;8.20;60.40
1468;DHT22;727;48.892;9.544;2024-01-11T14:14:16;7.70;61.80
1468;DHT22;727;48.892;9.544;2024-01-11T14:16:45;7.50;63.20
1468;DHT22;727;48.892;9.544;2024-01-11T14:19:12;7.20;63.90
1468;DHT22;727;48.892;9.544;2024-01-11T14:21:39;6.90;64.30
1468;DHT22;727;48.892;9.544;2024-01-11T14:24:07;7.00;64.50
1468;DHT22;727;48.892;9.544;2024-01-11T14:26:34;6.50;64.70
1468;DHT22;727;48.892;9.544;2024-01-11T14:29:03;5.30;68.00
1468;DHT22;727;48.892;9.544;2024-01-11T14:31:30;5.10;69.80
1468;DHT22;727;48.892;9.544;2024-01-11T14:33:57;4.60;70.90
1468;DHT22;727;48.892;9.544;2024-01-11T14:36:24;4.20;72.20
1468;DHT22;727;48.892;9.544;2024-01-11T14:38:51;3.90;73.60
1468;DHT22;727;48.892;9.544;2024-01-11T14:41:19;3.70;74.40
1468;DHT22;727;48.892;9.544;2024-01-11T14:43:46;3.40;75.70
1468;DHT22;727;48.892;9.544;2024-01-11T14:46:12;3.10;77.20
1468;DHT22;727;48.892;9.544;2024-01-11T14:48:41;3.00;78.10
1468;DHT22;727;48.892;9.544;2024-01-11T14:51:07;2.90;79.20
1468;DHT22;727;48.892;9.544;2024-01-11T14:53:34;2.70;79.90
1468;DHT22;727;48.892;9.544;2024-01-11T14:56:01;2.50;80.80
1468;DHT22;727;48.892;9.544;2024-01-11T14:58:29;2.40;81.60
1468;DHT22;727;48.892;9.544;2024-01-11T15:00:57;2.30;82.40
1468;DHT22;727;48.892;9.544;2024-01-11T15:03:24;2.10;83.20
1468;DHT22;727;48.892;9.544;2024-01-11T15:05:52;2.10;83.90
1468;DHT22;727;48.892;9.544;2024-01-11T15:08:19;1.90;84.70
1468;DHT22;727;48.892;9.544;2024-01-11T15:10:46;1.80;85.50
1468;DHT22;727;48.892;9.544;2024-01-11T15:13:13;1.70;86.10
1468;DHT22;727;48.892;9.544;2024-01-11T15:15:41;1.60;87.00
1468;DHT22;727;48.892;9.544;2024-01-11T15:18:08;1.50;87.80
1468;DHT22;727;48.892;9.544;2024-01-11T15:20:35;1.40;88.70
1468;DHT22;727;48.892;9.544;2024-01-11T15:23:01;1.30;89.90
1468;DHT22;727;48.892;9.544;2024-01-11T15:25:30;1.10;90.30
1468;DHT22;727;48.892;9.544;2024-01-11T15:27:58;1.00;90.60
1468;DHT22;727;48.892;9.544;2024-01-11T15:30:25;0.90;90.90
1468;DHT22;727;48.892;9.544;2024-01-11T15:33:02;0.80;91.30
1468;DHT22;727;48.892;9.544;2024-01-11T15:35:29;0.60;91.80
1468;DHT22;727;48.892;9.544;2024-01-11T15:37:56;0.40;92.30
1468;DHT22;727;48.892;9.544;2024-01-11T15:40:22;0.30;92.80
1468;DHT22;727;48.892;9.544;2024-01-11T15:42:49;0.20;93.10
1468;DHT22;727;48.892;9.544;2024-01-11T15:45:16;0.10;93.40
1468;DHT22;727;48.892;9.544;2024-01-11T15:47:42;0.00;93.80
1468;DHT22;727;48.892;9.544;2024-01-11T15:50:10;-0.10;94.00
1468;DHT22;727;48.892;9.544;2024-01-11T15:52:38;-0.20;94.50
1468;DHT22;727;48.892;9.544;2024-01-11T15:55:05;-0.30;95.00
1468;DHT22;727;48.892;9.544;2024-01-11T15:57:34;-0.40;95.60
1468;DHT22;727;48.892;9.544;2024-01-11T16:00:01;-0.40;96.20
1468;DHT22;727;48.892;9.544;2024-01-11T16:02:29;-0.50;96.80
1468;DHT22;727;48.892;9.544;2024-01-11T16:04:56;-0.60;97.20
1468;DHT22;727;48.892;9.544;2024-01-11T16:07:25;-0.60;97.60
1468;DHT22;727;48.892;9.544;2024-01-11T16:09:52;-0.80;97.90
1468;DHT22;727;48.892;9.544;2024-01-11T16:12:19;-0.90;98.10
1468;DHT22;727;48.892;9.544;2024-01-11T16:14:46;-0.90;98.70
1468;DHT22;727;48.892;9.544;2024-01-11T16:17:13;-1.00;99.20
1468;DHT22;727;48.892;9.544;2024-01-11T16:19:40;-1.10;99.60
1468;DHT22;727;48.892;9.544;2024-01-11T16:22:07;-1.10;99.90